»·PEaware :: QXE2673 KLAX-KLAS

QXE2673 :: KLAX-KLAS

FLIGHT INFORMATION

Flight Status: Arrived
Operator:
Horizon Air
More flights by this operator :: More flights under this callsign
Pilot: Walter H. (552)
Aircraft: BOEING 737-900
(B739)
More flights by this aircraft type
Origin: KLAX Los Angeles Intl
United States
Destination: KLAS McCarran Intl
United States
More flights between these airports :: More routes between these airports
Route: +LOOP7 DAG CLARR2
File this flight plan on PilotEdge
Remarks:
Altitude:
(Current/Filed)
24,000ft
Speed:
(Current/Filed)
320kts
Departed: 26-Jan-16 02:41 PM
Arrived: 26-Jan-16 03:33 PM
Distance/Time
Traveled:
205nm/0:52
Distance/Time
To Go:
Arrived

Flight Plot

Page will automatically refresh every two minutes.

Flight plan parsing failed; only flown route is shown


Map Options




Map Legend


Flown Route
Filed Route
Departure Airport
Arrival Airport
Navaid (VOR, NDB)
Fix

Horizontal Profiles

Position Reports

Time Latitude Longitude Heading Altitude Ground
Speed
26-Jan-16 13:56 33.939957 -118.408701 265 133ft 0kts
26-Jan-16 13:57 33.939957 -118.408701 265 133ft 0kts
26-Jan-16 13:58 33.939957 -118.408701 265 133ft 0kts
26-Jan-16 14:02 33.939957 -118.408701 265 133ft 0kts
26-Jan-16 14:03 33.939957 -118.408701 265 133ft 0kts
26-Jan-16 14:04 33.939957 -118.408701 265 133ft 0kts
26-Jan-16 14:05 33.939957 -118.408701 265 133ft 0kts
26-Jan-16 14:06 33.939957 -118.408701 265 133ft 0kts
26-Jan-16 14:07 33.939957 -118.408701 265 133ft 0kts
26-Jan-16 14:08 33.939957 -118.408701 265 133ft 0kts
26-Jan-16 14:09 33.939957 -118.408701 265 133ft 0kts
26-Jan-16 14:10 33.939957 -118.408701 265 133ft 0kts
26-Jan-16 14:11 33.939957 -118.408701 265 133ft 0kts
26-Jan-16 14:13 33.939957 -118.408701 265 133ft 0kts
26-Jan-16 14:14 33.939957 -118.408701 265 133ft 0kts
26-Jan-16 14:15 33.939957 -118.408701 265 133ft 0kts
26-Jan-16 14:16 33.939957 -118.408701 265 134ft 0kts
26-Jan-16 14:17 33.939957 -118.408701 265 134ft 0kts
26-Jan-16 14:18 33.939957 -118.408701 265 134ft 0kts
26-Jan-16 14:19 33.939957 -118.408701 265 134ft 0kts
26-Jan-16 14:20 33.939957 -118.408701 265 134ft 0kts
26-Jan-16 14:21 33.939957 -118.408701 265 134ft 0kts
26-Jan-16 14:22 33.939957 -118.408701 265 134ft 0kts
26-Jan-16 14:23 33.939957 -118.408701 265 134ft 0kts
26-Jan-16 14:24 33.939957 -118.408702 265 134ft 0kts
26-Jan-16 14:25 33.939957 -118.408704 265 134ft 0kts
26-Jan-16 14:26 33.939965 -118.408586 265 134ft 2kts
26-Jan-16 14:27 33.939954 -118.408338 224 134ft 1kts
26-Jan-16 14:28 33.939568 -118.408276 152 134ft 0kts
26-Jan-16 14:29 33.939563 -118.408273 152 134ft 0kts
26-Jan-16 14:30 33.938715 -118.407742 164 134ft 14kts
26-Jan-16 14:31 33.938579 -118.402640 82 134ft 15kts
26-Jan-16 14:32 33.939272 -118.395956 82 134ft 32kts
26-Jan-16 14:33 33.940095 -118.387544 83 134ft 25kts
26-Jan-16 14:34 33.940717 -118.380700 107 134ft 0kts
26-Jan-16 14:35 33.939827 -118.380315 238 134ft 18kts
26-Jan-16 14:36 33.935117 -118.424587 263 800ft 238kts
26-Jan-16 14:37 33.916001 -118.500226 247 3778ft 260kts
26-Jan-16 14:38 33.862110 -118.558960 211 5275ft 279kts
26-Jan-16 14:39 33.795931 -118.543563 122 5275ft 266kts
26-Jan-16 14:40 33.816074 -118.469935 24 7429ft 270kts
26-Jan-16 14:41 33.890157 -118.445679 16 10681ft 276kts
26-Jan-16 14:42 33.956403 -118.402177 54 12856ft 288kts
26-Jan-16 14:43 33.999173 -118.321366 53 12992ft 284kts
26-Jan-16 14:44 34.043091 -118.240823 52 15935ft 291kts
26-Jan-16 14:45 34.093464 -118.150000 52 17350ft 354kts
26-Jan-16 14:46 34.149930 -118.049361 51 19958ft 368kts
26-Jan-16 14:47 34.208528 -117.945410 52 22482ft 376kts
26-Jan-16 14:48 34.267439 -117.840485 52 23301ft 373kts
26-Jan-16 14:49 34.325578 -117.736611 52 23314ft 372kts
26-Jan-16 14:50 34.383605 -117.632626 52 23326ft 375kts
26-Jan-16 14:51 34.446223 -117.520059 52 23352ft 420kts
26-Jan-16 14:52 34.511265 -117.402759 52 23414ft 419kts
26-Jan-16 14:53 34.576162 -117.285335 52 25331ft 417kts
26-Jan-16 14:54 34.640369 -117.168776 52 25392ft 412kts
26-Jan-16 14:55 34.704079 -117.052739 52 25397ft 412kts
26-Jan-16 14:56 34.767394 -116.937039 52 25136ft 407kts
26-Jan-16 14:57 34.829726 -116.823207 52 24435ft 405kts
26-Jan-16 14:58 34.891975 -116.708536 53 24409ft 405kts
26-Jan-16 14:59 34.954256 -116.593964 50 24405ft 404kts
26-Jan-16 15:00 35.029898 -116.494222 42 24398ft 400kts
26-Jan-16 15:01 35.108309 -116.396436 42 24393ft 401kts
26-Jan-16 15:02 35.186052 -116.299061 42 24392ft 401kts
26-Jan-16 15:03 35.261625 -116.204015 42 23884ft 378kts
26-Jan-16 15:04 35.332975 -116.114022 42 22974ft 350kts
26-Jan-16 15:05 35.398422 -116.031785 42 22018ft 324kts
26-Jan-16 15:06 35.461033 -115.952846 42 21069ft 322kts
26-Jan-16 15:07 35.523357 -115.874045 42 20116ft 319kts
26-Jan-16 15:08 35.584677 -115.795986 42 19164ft 315kts
26-Jan-16 15:09 35.645077 -115.718886 43 18211ft 310kts
26-Jan-16 15:10 35.705699 -115.641520 43 16401ft 322kts
26-Jan-16 15:11 35.728413 -115.536554 92 14003ft 349kts
26-Jan-16 15:12 35.716639 -115.421183 92 11648ft 329kts
26-Jan-16 15:13 35.707048 -115.316912 92 10695ft 281kts
26-Jan-16 15:14 35.699514 -115.228109 92 9987ft 243kts
26-Jan-16 15:15 35.686614 -115.147497 134 9054ft 247kts
26-Jan-16 15:16 35.641231 -115.176584 282 8039ft 234kts
26-Jan-16 15:17 35.689384 -115.222577 332 7090ft 219kts
26-Jan-16 15:18 35.739089 -115.256099 332 7001ft 193kts
26-Jan-16 15:19 35.786408 -115.288040 332 7010ft 185kts
26-Jan-16 15:20 35.830269 -115.317476 332 6923ft 178kts
26-Jan-16 15:21 35.873601 -115.346476 332 6076ft 176kts
26-Jan-16 15:22 35.919904 -115.358799 7 6054ft 176kts
26-Jan-16 15:23 35.954498 -115.320052 64 6045ft 176kts
26-Jan-16 15:24 35.972927 -115.263937 65 6034ft 176kts
26-Jan-16 15:25 36.001583 -115.219321 39 4880ft 154kts
26-Jan-16 15:26 36.036678 -115.192524 25 3280ft 141kts
26-Jan-16 15:27 36.070187 -115.173375 26 2312ft 127kts
26-Jan-16 15:28 36.088672 -115.162523 43 2123ft 8kts
26-Jan-16 15:29 36.088701 -115.161544 115 2123ft 0kts
26-Jan-16 15:30 36.088607 -115.161303 116 2123ft 0kts
26-Jan-16 15:31 36.087875 -115.159304 113 2123ft 7kts
26-Jan-16 15:32 36.086851 -115.156261 110 2123ft 10kts
26-Jan-16 15:33 36.085814 -115.154649 152 2123ft 0kts
26-Jan-16 15:34 36.085813 -115.154648 152 2123ft 0kts
26-Jan-16 15:35 36.085812 -115.154648 152 2123ft 0kts
26-Jan-16 15:36 36.085812 -115.154648 152 2123ft 0kts
26-Jan-16 15:37 36.085812 -115.154648 152 2123ft 0kts

Navigation Log

Ident Type
Flight plan parsing failed, navigation log unavailable